Time;durP1;ratioP1;P1;durP2;ratioP2;P2;SDS_P1;SDS_P2;PMS_P1;PMS_P2;Temp;Humidity;BMP_temperature;BMP_pressure;BME280_temperature;BME280_humidity;BME280_pressure;Samples;Min_cycle;Max_cycle;Signal;HPM_P1;HPM_P2
2022/09/28 00:03:19;;;;;;;5.60;3.90;;;;;;;8.39;100.00;97048.05;219173;1281;22556;-78
2022/09/28 00:14:23;;;;;;;5.60;3.50;;;;;;;8.28;100.00;97044.27;219226;1281;25296;-77
2022/09/28 00:19:35;;;;;;;3.90;3.20;;;;;;;8.22;100.00;97043.14;219339;1281;25378;-77
2022/09/28 00:24:52;;;;;;;4.00;3.10;;;;;;;8.23;100.00;97048.95;219360;1281;22804;-77
2022/09/28 00:31:36;;;;;;;4.10;2.90;;;;;;;8.27;100.00;97042.58;219424;1281;25274;-77
2022/09/28 00:37:59;;;;;;;5.80;3.90;;;;;;;8.32;100.00;97038.37;219232;1281;22554;-75
2022/09/28 00:43:27;;;;;;;6.10;4.00;;;;;;;8.37;100.00;97038.80;219055;1281;25391;-77
2022/09/28 00:49:48;;;;;;;5.60;3.20;;;;;;;8.39;100.00;97041.12;219262;1281;25369;-76
2022/09/28 00:55:02;;;;;;;3.00;2.60;;;;;;;8.42;100.00;97039.60;218771;1284;22731;-76
2022/09/28 01:00:56;;;;;;;;;;;;;;;;;;;;;
2022/09/28 01:07:55;;;;;;;3.00;2.30;;;;;;;8.43;100.00;97047.74;219316;1281;25267;-77
2022/09/28 01:14:19;;;;;;;2.70;2.00;;;;;;;8.42;100.00;97038.61;218952;1281;22620;-77
2022/09/28 01:27:08;;;;;;;4.00;2.40;;;;;;;8.15;100.00;97047.01;219001;1280;22587;-77
2022/09/28 01:34:02;;;;;;;4.10;2.40;;;;;;;8.09;100.00;97046.73;218899;1281;24334;-76
2022/09/28 01:40:27;;;;;;;2.60;2.10;;;;;;;8.04;100.00;97044.63;218874;1281;22547;-76
2022/09/28 01:47:41;;;;;;;3.50;2.20;;;;;;;8.01;100.00;97040.23;219056;1281;22574;-77
2022/09/28 02:07:44;;;;;;;5.10;3.00;;;;;;;7.74;100.00;97031.06;219227;1281;22559;-77
2022/09/28 02:21:00;;;;;;;4.80;3.10;;;;;;;7.36;100.00;97034.64;218383;1281;24368;-77
2022/09/28 02:34:05;;;;;;;6.50;3.50;;;;;;;7.08;100.00;97045.95;218964;1284;23347;-76
2022/09/28 02:40:22;;;;;;;7.00;3.50;;;;;;;7.07;100.00;97049.20;218717;1284;22833;-76
2022/09/28 02:46:27;;;;;;;5.50;3.70;;;;;;;7.11;100.00;97050.58;219145;1281;24681;-76
2022/09/28 02:53:08;;;;;;;5.40;3.30;;;;;;;7.12;100.00;97045.70;218813;1282;22571;-78
2022/09/28 03:06:17;;;;;;;3.00;2.50;;;;;;;7.09;100.00;97042.05;218689;1282;22670;-77
2022/09/28 03:12:25;;;;;;;;;;;;;;;;;;;;;
2022/09/28 03:18:21;;;;;;;6.10;2.90;;;;;;;7.07;100.00;97043.63;217273;1287;22580;-77
2022/09/28 03:24:03;;;;;;;4.90;3.10;;;;;;;7.00;100.00;97047.19;219059;1281;25449;-77
2022/09/28 03:29:58;;;;;;;3.70;2.90;;;;;;;6.90;100.00;97046.45;219059;1281;22547;-77
2022/09/28 03:36:13;;;;;;;5.50;3.20;;;;;;;6.75;100.00;97052.15;219338;1281;22573;-76
2022/09/28 03:42:58;;;;;;;6.40;4.30;;;;;;;6.62;100.00;97059.55;219283;1281;25261;-75
2022/09/28 03:48:50;;;;;;;8.60;5.50;;;;;;;6.55;100.00;97056.69;219248;1281;22570;-77
2022/09/28 03:54:46;;;;;;;7.10;4.30;;;;;;;6.54;100.00;97052.33;219232;1281;23442;-77
2022/09/28 03:59:53;;;;;;;8.10;5.20;;;;;;;6.57;100.00;97048.06;219087;1282;22660;-78
2022/09/28 04:05:15;;;;;;;7.30;4.30;;;;;;;6.61;100.00;97040.95;219213;1281;22617;-77
2022/09/28 04:11:34;;;;;;;;;;;;;;;;;;;;;
2022/09/28 04:17:47;;;;;;;5.60;4.00;;;;;;;6.72;100.00;97050.09;219225;1281;24317;-77
2022/09/28 04:24:10;;;;;;;8.50;4.70;;;;;;;6.73;100.00;97061.61;219182;1281;24248;-76
2022/09/28 04:29:53;;;;;;;6.40;3.90;;;;;;;6.71;100.00;97049.86;219326;1281;22585;-77
2022/09/28 04:35:55;;;;;;;5.40;4.00;;;;;;;6.69;100.00;97045.16;219176;1281;26562;-77
2022/09/28 04:43:04;;;;;;;7.20;3.80;;;;;;;6.65;100.00;97049.73;218569;1281;25264;-77
2022/09/28 04:48:31;;;;;;;6.60;3.80;;;;;;;6.62;100.00;97042.84;218687;1282;23963;-78
2022/09/28 04:55:13;;;;;;;4.90;2.80;;;;;;;6.59;100.00;97045.06;218792;1281;24323;-77
2022/09/28 05:00:34;;;;;;;4.20;2.80;;;;;;;6.60;100.00;97046.11;219389;1281;22531;-76
2022/09/28 05:06:27;;;;;;;5.50;2.40;;;;;;;6.66;100.00;97039.16;219286;1281;23817;-77
2022/09/28 05:12:10;;;;;;;4.10;2.70;;;;;;;6.66;100.00;97039.48;219136;1281;22544;-76
2022/09/28 05:18:24;;;;;;;4.00;2.60;;;;;;;6.68;100.00;97038.48;218928;1281;25501;-76
2022/09/28 05:23:57;;;;;;;;;;;;;;;;;;;;;
2022/09/28 05:30:17;;;;;;;;;;;;;;;;;;;;;
2022/09/28 05:36:49;;;;;;;5.30;2.10;;;;;;;7.19;100.00;97042.96;218727;1284;22552;-76
2022/09/28 05:42:21;;;;;;;4.40;2.40;;;;;;;7.35;100.00;97046.39;218941;1284;24401;-77
2022/09/28 05:47:54;;;;;;;4.50;2.20;;;;;;;7.48;100.00;97050.35;219399;1282;23044;-76
2022/09/28 05:54:58;;;;;;;3.20;2.00;;;;;;;7.66;100.00;97055.21;219224;1282;22575;-76
2022/09/28 06:01:24;;;;;;;;;;;;;;;;;;;;;
2022/09/28 06:20:44;;;;;;;5.10;1.90;;;;;;;7.99;99.01;97030.63;219560;1281;22567;-77
2022/09/28 06:26:16;;;;;;;4.80;2.50;;;;;;;8.08;98.74;97024.70;220247;1281;23310;-77
2022/09/28 06:31:27;;;;;;;2.60;2.00;;;;;;;8.20;98.57;97023.75;219812;1281;22581;-77
2022/09/28 06:43:19;;;;;;;3.70;2.10;;;;;;;8.48;98.35;97026.90;217493;1290;25558;-77
2022/09/28 06:49:44;;;;;;;4.20;2.10;;;;;;;8.62;98.19;97034.16;217813;1287;22594;-76
2022/09/28 06:55:52;;;;;;;;;;;;;;;;;;;;;
2022/09/28 07:01:35;;;;;;;;;;;;;;;8.73;95.15;97037.13;217787;1290;22565;-78
2022/09/28 07:08:44;;;;;;;4.80;1.60;;;;;;;8.70;94.25;97040.27;217425;1289;24340;-77
2022/09/28 07:14:56;;;;;;;5.30;1.70;;;;;;;8.82;94.99;97043.14;218292;1285;22552;-77
2022/09/28 07:20:33;;;;;;;1.90;1.20;;;;;;;9.02;93.86;97046.83;218357;1287;24321;-77
2022/09/28 07:26:14;;;;;;;2.60;2.00;;;;;;;9.28;93.86;97053.39;218477;1285;22616;-78
2022/09/28 07:31:51;;;;;;;2.10;1.10;;;;;;;9.57;93.02;97052.48;218451;1286;23838;-77
2022/09/28 07:38:43;;;;;;;2.10;1.50;;;;;;;9.89;92.23;97046.71;217590;1287;22589;-76
2022/09/28 07:52:11;;;;;;;1.70;1.00;;;;;;;10.19;89.88;97051.23;217353;1287;22687;-76
2022/09/28 07:58:14;;;;;;;3.10;1.40;;;;;;;10.54;90.02;97049.05;217662;1287;25545;-77
2022/09/28 08:04:09;;;;;;;2.60;1.60;;;;;;;10.79;88.26;97050.27;218101;1287;25685;-76
2022/09/28 08:09:36;;;;;;;2.40;1.50;;;;;;;10.97;88.16;97047.11;219217;1281;25315;-76
2022/09/28 08:16:18;;;;;;;;;;;;;;;;;;;;;
2022/09/28 08:27:27;;;;;;;2.90;1.30;;;;;;;11.33;86.16;97031.09;218907;1282;25252;-77
2022/09/28 08:33:07;;;;;;;;;;;;;;;;;;;;;
2022/09/28 08:38:53;;;;;;;2.00;1.00;;;;;;;11.40;84.33;97030.78;218891;1282;24017;-76
2022/09/28 08:45:34;;;;;;;1.00;0.90;;;;;;;11.60;83.90;97031.08;219277;1282;24456;-76
2022/09/28 08:58:42;;;;;;;1.90;0.50;;;;;;;11.94;79.82;97030.34;219435;1281;26417;-76
2022/09/28 09:04:16;;;;;;;1.20;0.40;;;;;;;11.94;77.06;97035.39;220348;1281;22573;-77
2022/09/28 09:10:01;;;;;;;1.70;0.60;;;;;;;11.75;76.49;97044.63;219417;1281;24368;-75
2022/09/28 09:16:13;;;;;;;;;;;;;;;;;;;;;
2022/09/28 09:22:59;;;;;;;1.40;0.70;;;;;;;11.92;78.05;97042.67;222667;1285;23180;-76
2022/09/28 09:29:16;;;;;;;3.60;1.40;;;;;;;12.46;78.81;97033.44;222619;1286;22557;-76
2022/09/28 09:35:46;;;;;;;;;;;;;;;;;;;;;
2022/09/28 09:41:50;;;;;;;0.70;0.50;;;;;;;13.30;74.82;97039.60;222451;1281;23714;-76
2022/09/28 09:54:35;;;;;;;1.70;0.90;;;;;;;13.78;73.67;97032.17;218661;1284;22596;-76
2022/09/28 10:07:47;;;;;;;1.10;0.80;;;;;;;14.06;74.40;97017.14;217714;1284;22554;-76
2022/09/28 10:14:01;;;;;;;3.10;0.60;;;;;;;14.16;74.13;97009.95;218365;1284;23376;-77
2022/09/28 10:21:13;;;;;;;2.50;1.80;;;;;;;14.04;72.63;96995.25;218882;1281;22686;-77
2022/09/28 10:27:13;;;;;;;;;;;;;;;;;;;;;
2022/09/28 10:33:14;;;;;;;2.70;0.70;;;;;;;14.57;72.49;96984.45;219550;1282;22596;-76
2022/09/28 10:45:42;;;;;;;2.60;0.90;;;;;;;14.49;70.60;96969.69;219564;1281;24701;-82
2022/09/28 10:52:13;;;;;;;;;;;;;;;;;;;;;
2022/09/28 10:57:38;;;;;;;0.90;0.40;;;;;;;14.55;69.26;96949.95;218463;1282;22637;-76
2022/09/28 11:02:42;;;;;;;1.00;0.40;;;;;;;14.90;66.57;96952.39;219289;1281;22635;-77
2022/09/28 11:08:18;;;;;;;0.80;0.50;;;;;;;15.02;66.44;96945.25;219188;1281;24392;-76
2022/09/28 11:13:33;;;;;;;1.60;0.50;;;;;;;15.11;64.74;96937.38;219281;1281;22550;-76
2022/09/28 11:18:39;;;;;;;3.30;0.70;;;;;;;15.20;65.70;96927.87;219503;1281;25368;-76
2022/09/28 11:29:45;;;;;;;1.20;0.70;;;;;;;15.28;65.52;96931.08;219649;1281;22687;-76
2022/09/28 11:35:15;;;;;;;3.40;0.70;;;;;;;15.60;66.89;96932.34;219248;1281;23111;-76
2022/09/28 11:41:08;;;;;;;1.70;0.60;;;;;;;15.71;67.28;96922.99;219576;1281;22553;-77
2022/09/28 11:46:39;;;;;;;3.00;1.00;;;;;;;15.92;67.20;96909.05;219075;1281;23298;-77
2022/09/28 11:52:13;;;;;;;0.70;0.40;;;;;;;16.12;66.04;96902.86;219032;1284;23827;-78
2022/09/28 11:57:35;;;;;;;1.30;0.90;;;;;;;16.07;62.55;96912.30;218813;1284;23342;-78
2022/09/28 12:03:25;;;;;;;2.40;0.90;;;;;;;15.73;62.65;96911.38;218811;1284;22609;-77
2022/09/28 12:08:44;;;;;;;2.10;0.60;;;;;;;15.66;63.99;96905.04;219005;1284;25420;-76
2022/09/28 12:14:25;;;;;;;1.00;0.50;;;;;;;15.54;62.53;96903.42;218839;1284;22569;-76
2022/09/28 12:20:26;;;;;;;1.30;0.90;;;;;;;15.54;64.61;96900.03;217976;1285;22814;-75
2022/09/28 12:25:38;;;;;;;2.60;0.50;;;;;;;15.63;63.44;96907.33;218752;1284;22596;-77
2022/09/28 12:30:46;;;;;;;2.20;1.30;;;;;;;15.65;63.84;96904.41;218592;1284;22904;-75
2022/09/28 12:36:07;;;;;;;1.70;0.60;;;;;;;15.76;64.74;96895.13;218086;1287;24599;-76
2022/09/28 12:42:06;;;;;;;1.20;0.60;;;;;;;16.04;64.10;96887.75;218652;1284;24045;-75
2022/09/28 12:47:27;;;;;;;1.90;0.60;;;;;;;16.30;65.04;96884.91;218417;1284;24326;-77
2022/09/28 12:52:52;;;;;;;2.70;1.00;;;;;;;16.47;64.10;96887.14;219697;1281;24161;-76
2022/09/28 12:58:35;;;;;;;2.90;1.20;;;;;;;16.37;65.06;96884.89;219939;1281;24237;-77
2022/09/28 13:04:28;;;;;;;1.50;0.70;;;;;;;16.21;64.77;96886.14;224542;1280;23095;-78
2022/09/28 13:10:14;;;;;;;2.10;0.60;;;;;;;16.01;65.71;96882.93;223037;1287;22585;-78
2022/09/28 13:16:08;;;;;;;2.00;1.10;;;;;;;15.85;66.68;96875.27;218344;1289;23500;-76
2022/09/28 13:21:43;;;;;;;1.20;0.80;;;;;;;15.62;67.15;96869.06;218371;1284;25556;-75
2022/09/28 13:27:18;;;;;;;2.80;1.30;;;;;;;15.39;67.92;96867.02;218836;1285;24411;-75
2022/09/28 13:32:25;;;;;;;5.20;2.80;;;;;;;15.19;68.44;96863.76;218330;1287;24485;-75
2022/09/28 13:38:48;;;;;;;2.20;0.80;;;;;;;15.02;69.12;96866.98;218329;1288;22574;-75
2022/09/28 13:43:57;;;;;;;2.00;1.20;;;;;;;14.87;69.59;96862.45;217834;1287;23215;-74
2022/09/28 13:50:00;;;;;;;1.30;0.80;;;;;;;14.75;69.50;96856.37;218135;1287;22572;-75
2022/09/28 13:55:31;;;;;;;;;;;;;;;;;;;;;
2022/09/28 14:00:49;;;;;;;4.60;1.80;;;;;;;14.55;70.57;96846.88;217678;1287;24926;-75
2022/09/28 14:07:33;;;;;;;3.80;1.50;;;;;;;14.48;71.44;96846.53;219000;1284;22588;-75
2022/09/28 14:12:56;;;;;;;4.60;2.20;;;;;;;14.33;72.81;96835.89;218196;1284;24259;-74
2022/09/28 14:18:54;;;;;;;4.00;1.90;;;;;;;14.27;73.75;96830.65;218767;1285;22964;-76
2022/09/28 14:24:46;;;;;;;3.60;1.50;;;;;;;14.31;74.78;96824.71;218379;1285;24334;-75
2022/09/28 14:30:47;;;;;;;4.20;2.20;;;;;;;14.37;75.49;96818.80;218898;1284;22546;-75
2022/09/28 14:35:57;;;;;;;2.60;1.40;;;;;;;14.34;75.58;96812.60;218541;1284;24240;-75
2022/09/28 14:41:56;;;;;;;6.00;2.50;;;;;;;14.18;75.61;96825.42;218533;1284;24139;-74
2022/09/28 14:47:32;;;;;;;3.60;2.30;;;;;;;13.95;76.48;96819.80;218311;1281;26590;-74
2022/09/28 14:53:19;;;;;;;4.90;2.30;;;;;;;13.91;77.35;96813.28;219130;1281;25375;-74
2022/09/28 14:58:26;;;;;;;4.40;2.30;;;;;;;13.91;77.86;96804.20;219423;1281;24302;-75
2022/09/28 15:03:35;;;;;;;3.70;2.30;;;;;;;13.90;78.23;96804.02;219402;1281;22594;-75
2022/09/28 15:09:35;;;;;;;3.30;2.30;;;;;;;13.92;78.92;96809.52;218833;1281;22578;-74
2022/09/28 15:15:36;;;;;;;5.90;3.80;;;;;;;13.94;79.45;96815.25;219546;1281;24236;-77
2022/09/28 15:20:46;;;;;;;5.30;3.10;;;;;;;14.00;79.64;96816.52;219583;1281;22563;-76
2022/09/28 15:26:02;;;;;;;6.90;3.60;;;;;;;13.94;79.37;96819.41;218812;1281;22584;-74
2022/09/28 15:31:40;;;;;;;6.20;3.00;;;;;;;13.82;79.49;96823.40;219218;1281;23061;-74
2022/09/28 15:37:44;;;;;;;5.40;2.50;;;;;;;13.57;79.95;96824.58;218439;1284;22808;-74
2022/09/28 15:43:40;;;;;;;4.80;2.30;;;;;;;13.24;81.05;96834.37;218372;1282;24386;-75
2022/09/28 15:48:58;;;;;;;4.30;2.30;;;;;;;12.97;82.40;96828.95;218224;1287;22665;-75
2022/09/28 15:54:31;;;;;;;6.30;2.10;;;;;;;12.79;83.12;96826.95;218597;1284;24209;-75
2022/09/28 15:59:58;;;;;;;3.70;1.90;;;;;;;12.65;83.83;96827.64;218456;1284;22576;-76
2022/09/28 16:06:16;;;;;;;3.70;1.90;;;;;;;12.54;84.09;96833.52;218451;1282;22601;-75
2022/09/28 16:11:37;;;;;;;3.50;2.60;;;;;;;12.47;84.43;96824.55;219377;1282;22588;-75
2022/09/28 16:16:54;;;;;;;4.10;2.10;;;;;;;12.44;84.77;96814.81;219535;1281;25379;-75
2022/09/28 16:22:09;;;;;;;5.40;2.50;;;;;;;12.39;85.48;96828.65;219440;1281;22623;-75
2022/09/28 16:28:01;;;;;;;6.60;2.60;;;;;;;12.33;85.62;96845.85;218970;1281;24246;-75
2022/09/28 16:34:16;;;;;;;4.30;2.40;;;;;;;12.29;85.92;96859.80;219077;1281;24439;-75
2022/09/28 16:39:41;;;;;;;5.80;2.80;;;;;;;12.27;86.25;96863.29;217160;1290;22818;-75
2022/09/28 16:50:25;;;;;;;4.00;2.50;;;;;;;12.19;87.05;96869.66;219290;1281;24320;-75
2022/09/28 16:55:52;;;;;;;4.60;2.20;;;;;;;12.17;87.72;96872.38;219148;1281;22579;-75
2022/09/28 17:01:20;;;;;;;4.30;2.10;;;;;;;12.20;88.10;96881.11;219326;1281;24302;-75
2022/09/28 17:06:35;;;;;;;4.70;2.30;;;;;;;12.24;87.87;96886.05;219069;1281;22550;-75
2022/09/28 17:12:01;;;;;;;5.50;2.80;;;;;;;12.27;87.57;96890.79;219508;1281;22572;-75
2022/09/28 17:17:06;;;;;;;5.00;3.30;;;;;;;12.28;87.50;96894.53;218698;1282;22572;-75
2022/09/28 17:29:00;;;;;;;2.80;1.60;;;;;;;12.23;87.07;96915.71;219424;1281;24300;-75
2022/09/28 17:34:46;;;;;;;3.80;1.90;;;;;;;12.12;86.97;96920.71;218884;1282;22572;-75
2022/09/28 17:40:49;;;;;;;4.90;2.90;;;;;;;12.04;87.19;96916.98;219298;1281;22665;-75
2022/09/28 17:46:46;;;;;;;2.50;1.80;;;;;;;11.95;87.62;96925.72;218171;1284;22590;-75
2022/09/28 17:52:31;;;;;;;4.20;2.50;;;;;;;11.86;87.60;96933.04;217991;1287;26000;-75
2022/09/28 18:11:46;;;;;;;5.90;3.40;;;;;;;11.60;88.74;96940.13;217791;1287;22760;-75
2022/09/28 18:18:19;;;;;;;10.50;5.80;;;;;;;11.59;88.87;96939.95;219031;1280;23964;-75
2022/09/28 18:24:14;;;;;;;;;;;;;;;;;;;;;
2022/09/28 18:30:19;;;;;;;;;;;;;;;;;;;;;
2022/09/28 18:36:52;;;;;;;6.50;4.20;;;;;;;11.29;89.60;96951.55;219145;1284;22569;-75
2022/09/28 18:42:31;;;;;;;6.30;3.80;;;;;;;11.14;89.89;96955.80;218858;1284;23367;-75
2022/09/28 18:47:58;;;;;;;5.10;3.70;;;;;;;11.03;90.18;96964.16;219069;1281;22596;-75
2022/09/28 18:58:57;;;;;;;7.20;4.20;;;;;;;10.88;90.49;96965.31;218961;1281;23751;-74
2022/09/28 19:04:41;;;;;;;8.40;5.10;;;;;;;10.84;91.00;96969.31;219077;1282;25363;-75
2022/09/28 19:10:21;;;;;;;7.10;4.20;;;;;;;10.84;91.20;96971.46;219327;1281;22563;-75
2022/09/28 19:16:19;;;;;;;6.70;4.20;;;;;;;10.81;91.41;96977.89;218505;1282;24194;-74
2022/09/28 19:21:43;;;;;;;;;;;;;;;;;;;;;
2022/09/28 19:27:10;;;;;;;12.10;6.40;;;;;;;10.72;91.88;96983.70;219298;1281;22569;-73
2022/09/28 19:32:41;;;;;;;10.00;6.60;;;;;;;10.71;92.06;96986.81;219423;1281;27420;-75
2022/09/28 19:37:45;;;;;;;10.20;6.00;;;;;;;10.73;92.30;96990.31;218731;1282;22510;-75
2022/09/28 19:42:55;;;;;;;12.30;7.20;;;;;;;10.72;92.69;97002.01;219250;1281;23839;-75
2022/09/28 19:47:57;;;;;;;11.70;6.70;;;;;;;10.72;92.64;97016.00;219439;1281;25329;-74
2022/09/28 19:53:29;;;;;;;13.40;8.40;;;;;;;10.73;92.89;97030.73;219165;1281;22575;-74
2022/09/28 19:58:51;;;;;;;15.70;8.90;;;;;;;10.73;92.81;97028.12;219391;1281;23510;-75
2022/09/28 20:04:15;;;;;;;12.30;7.00;;;;;;;10.71;92.95;97034.09;219331;1281;22599;-74
2022/09/28 20:09:41;;;;;;;12.00;6.40;;;;;;;10.66;93.32;97057.42;219015;1281;24202;-75
2022/09/28 20:14:43;;;;;;;12.00;6.10;;;;;;;10.58;93.46;97058.85;219398;1281;22608;-75
2022/09/28 20:19:50;;;;;;;8.60;5.50;;;;;;;10.53;93.83;97065.48;218884;1281;22744;-75
2022/09/28 20:25:23;;;;;;;9.00;4.90;;;;;;;10.49;93.73;97065.77;219617;1281;24270;-75
2022/09/28 20:30:26;;;;;;;6.40;4.70;;;;;;;10.43;94.03;97057.27;219107;1280;22615;-75
2022/09/28 20:35:58;;;;;;;6.40;4.20;;;;;;;10.40;94.15;97070.67;218999;1281;24480;-73
2022/09/28 20:41:35;;;;;;;7.70;3.80;;;;;;;10.35;94.24;97086.81;219006;1281;24269;-74
2022/09/28 20:47:17;;;;;;;5.10;3.00;;;;;;;10.32;94.58;97079.47;218483;1282;22551;-75
2022/09/28 20:58:54;;;;;;;5.10;3.20;;;;;;;10.28;94.58;97094.17;219258;1281;22645;-74
2022/09/28 21:04:35;;;;;;;5.90;2.80;;;;;;;10.27;94.54;97105.83;218948;1284;22532;-75
2022/09/28 21:16:46;;;;;;;5.50;3.10;;;;;;;10.27;94.32;97103.24;218311;1285;22941;-74
2022/09/28 21:22:09;;;;;;;5.80;3.40;;;;;;;10.26;94.23;97108.63;218340;1284;23387;-73
2022/09/28 21:27:44;;;;;;;5.50;2.80;;;;;;;10.23;94.23;97095.52;218074;1285;24290;-74
2022/09/28 21:33:27;;;;;;;5.50;3.30;;;;;;;10.20;94.16;97118.13;218260;1284;22556;-75
2022/09/28 21:39:10;;;;;;;5.20;2.60;;;;;;;10.17;93.72;97121.05;218245;1285;22647;-75
2022/09/28 21:45:23;;;;;;;;;;;;;;;;;;;;;
2022/09/28 21:50:26;;;;;;;4.00;2.50;;;;;;;10.14;93.19;97123.23;218843;1281;23412;-74
2022/09/28 21:56:30;;;;;;;4.80;2.50;;;;;;;10.15;92.94;97124.25;219132;1281;24394;-75
2022/09/28 22:01:43;;;;;;;3.00;1.70;;;;;;;10.13;92.93;97132.13;219518;1281;25327;-74
2022/09/28 22:07:31;;;;;;;;;;;;;;;;;;;;;
2022/09/28 22:13:13;;;;;;;3.10;2.30;;;;;;;10.07;92.94;97150.95;219180;1281;22555;-76
2022/09/28 22:18:53;;;;;;;;;;;;;;;;;;;;;
2022/09/28 22:25:58;;;;;;;3.30;2.10;;;;;;;10.01;92.89;97169.77;218625;1282;23218;-74
2022/09/28 22:52:35;;;;;;;;;;;;;;;;;;;;;
2022/09/28 23:04:48;;;;;;;2.30;1.80;;;;;;;9.85;93.14;97178.34;218122;1287;25452;-75
2022/09/28 23:11:43;;;;;;;3.70;2.00;;;;;;;9.80;93.15;97168.25;219170;1281;22579;-75
2022/09/28 23:18:15;;;;;;;;;;;;;;;;;;;;;
2022/09/28 23:24:28;;;;;;;;;;;;;;;;;;;;;
2022/09/28 23:31:10;;;;;;;3.80;2.50;;;;;;;9.69;93.80;97193.91;218958;1281;25438;-75
2022/09/28 23:37:48;;;;;;;3.50;2.50;;;;;;;9.62;93.82;97198.35;219365;1282;22612;-75
2022/09/28 23:55:24;;;;;;;4.40;3.00;;;;;;;9.51;94.18;97203.71;219253;1281;24412;-75
